Time;durP1;ratioP1;P1;durP2;ratioP2;P2;SDS_P1;SDS_P2;PMS_P1;PMS_P2;Temp;Humidity;BMP_temperature;BMP_pressure;BME280_temperature;BME280_humidity;BME280_pressure;Samples;Min_cycle;Max_cycle;Signal;HPM_P1;HPM_P2
2024/01/25 00:01:20;;;;;;;96.10;18.63;;;6.90;99.90;;;;;;5054242;28;20052;-77
2024/01/25 00:03:46;;;;;;;119.70;21.88;;;6.90;99.90;;;;;;5077641;28;20485;-77
2024/01/25 00:06:11;;;;;;;100.50;19.48;;;6.90;99.90;;;;;;5078356;28;20076;-77
2024/01/25 00:08:37;;;;;;;113.30;19.83;;;7.00;99.90;;;;;;5089355;28;20653;-77
2024/01/25 00:11:03;;;;;;;104.78;20.50;;;7.00;99.90;;;;;;5091899;28;20109;-77
2024/01/25 00:13:29;;;;;;;118.20;19.00;;;7.00;99.90;;;;;;5084685;28;20044;-77
2024/01/25 00:15:55;;;;;;;105.53;19.83;;;7.00;99.90;;;;;;5082886;28;20057;-77
2024/01/25 00:18:21;;;;;;;109.38;20.60;;;7.00;99.90;;;;;;5090919;28;20127;-77
2024/01/25 00:20:47;;;;;;;103.90;18.52;;;7.00;99.90;;;;;;5076589;28;20036;-77
2024/01/25 00:23:14;;;;;;;103.95;21.08;;;7.00;99.90;;;;;;5092840;28;20835;-77
2024/01/25 00:25:40;;;;;;;84.37;18.83;;;7.00;99.90;;;;;;5083874;28;20142;-77
2024/01/25 00:28:06;;;;;;;101.55;19.70;;;6.90;99.90;;;;;;5087214;28;20381;-77
2024/01/25 00:30:33;;;;;;;105.53;18.92;;;6.90;99.90;;;;;;5090378;28;20082;-77
2024/01/25 00:32:59;;;;;;;104.85;20.92;;;6.90;99.90;;;;;;5084858;28;20056;-77
2024/01/25 00:35:25;;;;;;;102.88;19.88;;;7.00;99.90;;;;;;5078100;28;20055;-77
2024/01/25 00:37:51;;;;;;;119.80;21.13;;;7.00;99.90;;;;;;5082479;28;20048;-77
2024/01/25 00:40:18;;;;;;;124.80;19.40;;;7.00;99.90;;;;;;5077031;28;20102;-77
2024/01/25 00:42:48;;;;;;;107.28;18.58;;;6.90;99.90;;;;;;5078695;28;20105;-77
2024/01/25 00:45:15;;;;;;;124.47;21.45;;;6.90;99.90;;;;;;5087328;28;20059;-77
2024/01/25 00:47:41;;;;;;;119.93;21.17;;;6.90;99.90;;;;;;5090491;28;20048;-77
2024/01/25 00:50:07;;;;;;;105.65;18.50;;;6.90;99.90;;;;;;5088754;28;20424;-77
2024/01/25 00:52:35;;;;;;;120.65;20.25;;;6.80;99.90;;;;;;5091520;28;20082;-76
2024/01/25 00:55:02;;;;;;;97.20;18.45;;;6.80;99.90;;;;;;5091180;28;20147;-77
2024/01/25 00:57:28;;;;;;;87.40;17.80;;;6.80;99.90;;;;;;5077496;28;20040;-77
2024/01/25 00:59:53;;;;;;;120.75;20.05;;;6.70;99.90;;;;;;5091286;28;20039;-77
2024/01/25 01:02:22;;;;;;;106.07;19.55;;;6.70;99.90;;;;;;5089257;28;20489;-77
2024/01/25 01:04:48;;;;;;;86.97;18.00;;;6.70;99.90;;;;;;5086319;28;20460;-77
2024/01/25 01:07:15;;;;;;;105.65;20.35;;;6.60;99.90;;;;;;5088713;28;20413;-77
2024/01/25 01:09:40;;;;;;;105.38;18.75;;;6.60;99.90;;;;;;5081477;28;20093;-77
2024/01/25 01:12:07;;;;;;;114.07;22.13;;;6.50;99.90;;;;;;5086588;28;20044;-77
2024/01/25 01:14:33;;;;;;;105.95;20.60;;;6.50;99.90;;;;;;5086535;28;20056;-77
2024/01/25 01:16:58;;;;;;;96.97;19.55;;;6.50;99.90;;;;;;5091137;28;20047;-77
2024/01/25 01:19:24;;;;;;;104.32;20.25;;;6.50;99.90;;;;;;5087642;28;20420;-77
2024/01/25 01:21:49;;;;;;;111.63;18.90;;;6.50;99.90;;;;;;5087972;28;20109;-77
2024/01/25 01:24:15;;;;;;;131.65;20.35;;;6.40;99.90;;;;;;5075110;28;20048;-77
2024/01/25 01:26:44;;;;;;;104.43;21.95;;;6.40;99.90;;;;;;5078916;28;20045;-77
2024/01/25 01:29:09;;;;;;;89.28;19.55;;;6.40;99.90;;;;;;5084101;28;20083;-77
2024/01/25 01:31:35;;;;;;;109.35;20.67;;;6.30;99.90;;;;;;5070455;28;20536;-77
2024/01/25 01:34:01;;;;;;;110.45;19.45;;;6.30;99.90;;;;;;5063889;28;20052;-77
2024/01/25 01:36:27;;;;;;;123.35;21.17;;;6.30;99.90;;;;;;5084175;28;20058;-77
2024/01/25 01:38:52;;;;;;;112.43;22.40;;;6.20;99.90;;;;;;5083583;28;20076;-77
2024/01/25 01:41:18;;;;;;;109.38;21.88;;;6.20;99.90;;;;;;5079722;28;20048;-77
2024/01/25 01:43:45;;;;;;;104.38;20.90;;;6.20;99.90;;;;;;5086481;28;20044;-77
2024/01/25 01:46:40;;;;;;;109.78;20.00;;;6.10;99.90;;;;;;5078230;28;20496;-77
2024/01/25 01:49:12;;;;;;;113.55;20.15;;;6.10;99.90;;;;;;5077874;28;20067;-77
2024/01/25 01:51:38;;;;;;;104.18;18.95;;;6.00;99.90;;;;;;5088369;28;20058;-77
2024/01/25 01:54:07;;;;;;;105.72;23.52;;;6.00;99.90;;;;;;5083258;28;20052;-77
2024/01/25 01:56:33;;;;;;;115.97;23.42;;;6.00;99.90;;;;;;5082393;28;20166;-77
2024/01/25 01:59:08;;;;;;;111.90;20.95;;;5.90;99.90;;;;;;5079699;28;20052;-77
2024/01/25 02:01:34;;;;;;;129.23;24.23;;;5.90;99.90;;;;;;5086909;28;20084;-77
2024/01/25 02:03:59;;;;;;;113.45;21.85;;;5.90;99.90;;;;;;5085435;28;20113;-76
2024/01/25 02:06:25;;;;;;;138.15;23.67;;;5.80;99.90;;;;;;5084024;28;20058;-77
2024/01/25 02:08:53;;;;;;;130.70;23.02;;;5.80;99.90;;;;;;5084375;28;20146;-77
2024/01/25 02:11:20;;;;;;;146.67;24.53;;;5.80;99.90;;;;;;5087334;28;20048;-77
2024/01/25 02:13:47;;;;;;;130.40;23.70;;;5.70;99.90;;;;;;5083801;28;20874;-77
2024/01/25 02:16:14;;;;;;;127.22;23.05;;;5.70;99.90;;;;;;5076873;28;20505;-77
2024/01/25 02:18:41;;;;;;;117.88;22.95;;;5.60;99.90;;;;;;5076907;28;20045;-77
2024/01/25 02:21:07;;;;;;;114.78;22.25;;;5.60;99.90;;;;;;5068901;28;20048;-77
2024/01/25 02:23:33;;;;;;;108.28;19.85;;;5.50;99.90;;;;;;5081106;28;20583;-77
2024/01/25 02:25:59;;;;;;;132.45;22.77;;;5.50;99.90;;;;;;5072968;28;20052;-77
2024/01/25 02:28:25;;;;;;;125.45;22.58;;;5.50;99.90;;;;;;5084017;28;20051;-77
2024/01/25 02:30:50;;;;;;;145.07;25.75;;;5.50;99.90;;;;;;5088141;28;20491;-77
2024/01/25 02:33:16;;;;;;;123.50;21.25;;;5.40;99.90;;;;;;5086055;28;20130;-77
2024/01/25 02:35:41;;;;;;;139.50;23.25;;;5.40;99.90;;;;;;5086382;28;20109;-77
2024/01/25 02:38:07;;;;;;;125.45;23.20;;;5.40;99.90;;;;;;5076741;28;20481;-77
2024/01/25 02:40:33;;;;;;;145.82;22.98;;;5.30;99.90;;;;;;5079437;28;20045;-77
2024/01/25 02:42:58;;;;;;;136.38;25.08;;;5.30;99.90;;;;;;5076828;28;20489;-77
2024/01/25 02:45:24;;;;;;;142.88;23.40;;;5.30;99.90;;;;;;5082937;28;20047;-77
2024/01/25 02:47:50;;;;;;;114.32;23.17;;;5.30;99.90;;;;;;5080977;28;20052;-77
2024/01/25 02:50:16;;;;;;;127.68;22.95;;;5.30;99.90;;;;;;5086393;28;20449;-77
2024/01/25 02:52:42;;;;;;;127.47;22.60;;;5.20;99.90;;;;;;5073267;28;20175;-77
2024/01/25 02:55:08;;;;;;;140.93;24.92;;;5.20;99.90;;;;;;5085839;28;20837;-77
2024/01/25 02:57:33;;;;;;;156.43;27.02;;;5.20;99.90;;;;;;5077515;28;20047;-77
2024/01/25 02:59:59;;;;;;;155.43;25.02;;;5.20;99.90;;;;;;5081559;28;20064;-77
2024/01/25 03:02:25;;;;;;;131.07;22.48;;;5.10;99.90;;;;;;5083093;28;20044;-77
2024/01/25 03:04:50;;;;;;;132.32;22.55;;;5.10;99.90;;;;;;5087802;28;20080;-77
2024/01/25 03:07:16;;;;;;;143.00;24.45;;;5.10;99.90;;;;;;5078653;28;20044;-77
2024/01/25 03:09:42;;;;;;;147.70;24.70;;;5.10;99.90;;;;;;5075797;28;20098;-77
2024/01/25 03:12:07;;;;;;;152.85;25.65;;;5.10;99.90;;;;;;5062195;28;20052;-77
2024/01/25 03:14:33;;;;;;;146.48;24.55;;;5.10;99.90;;;;;;5071741;28;20072;-76
2024/01/25 03:16:59;;;;;;;123.13;24.15;;;5.00;99.90;;;;;;5086954;28;20394;-76
2024/01/25 03:19:25;;;;;;;152.05;24.20;;;5.00;99.90;;;;;;5087613;28;20040;-76
2024/01/25 03:21:52;;;;;;;181.30;27.25;;;5.00;99.90;;;;;;5085555;28;20087;-77
2024/01/25 03:24:17;;;;;;;150.60;23.85;;;5.00;99.90;;;;;;5085343;28;20566;-77
2024/01/25 03:26:43;;;;;;;145.80;24.23;;;4.90;99.90;;;;;;5080561;28;20028;-77
2024/01/25 03:29:09;;;;;;;129.77;22.02;;;4.90;99.90;;;;;;5091349;28;20048;-77
2024/01/25 03:31:35;;;;;;;129.77;23.25;;;4.90;99.90;;;;;;5083520;28;20790;-77
2024/01/25 03:34:02;;;;;;;158.13;25.77;;;4.90;99.90;;;;;;5081477;28;20505;-77
2024/01/25 03:36:27;;;;;;;133.55;22.88;;;4.90;99.90;;;;;;5084314;28;20071;-77
2024/01/25 03:38:53;;;;;;;126.97;24.35;;;4.90;99.90;;;;;;5084976;28;20396;-77
2024/01/25 03:41:19;;;;;;;133.75;23.63;;;4.90;99.90;;;;;;5076136;28;20111;-77
2024/01/25 03:43:45;;;;;;;137.55;23.23;;;4.80;99.90;;;;;;5075586;28;20680;-77
2024/01/25 03:46:13;;;;;;;142.50;26.65;;;4.80;99.90;;;;;;5085554;28;20044;-77
2024/01/25 03:48:39;;;;;;;120.97;22.92;;;4.80;99.90;;;;;;5078612;28;20036;-77
2024/01/25 03:51:05;;;;;;;127.43;22.27;;;4.80;99.90;;;;;;5077994;28;20411;-77
2024/01/25 03:53:31;;;;;;;115.68;22.73;;;4.70;99.90;;;;;;5081426;28;20055;-77
2024/01/25 03:55:56;;;;;;;148.98;23.45;;;4.70;99.90;;;;;;5076259;28;20085;-77
2024/01/25 03:58:22;;;;;;;150.68;22.20;;;4.70;99.90;;;;;;5073146;28;20346;-77
2024/01/25 04:00:48;;;;;;;122.68;21.92;;;4.60;99.90;;;;;;5080157;28;20040;-77
2024/01/25 04:03:13;;;;;;;126.72;22.17;;;4.60;99.90;;;;;;5085651;28;20060;-77
2024/01/25 04:05:39;;;;;;;142.98;22.98;;;4.60;99.90;;;;;;5076849;28;20044;-77
2024/01/25 04:08:06;;;;;;;119.63;23.17;;;4.50;99.90;;;;;;5073293;28;20036;-77
2024/01/25 04:10:31;;;;;;;121.97;20.48;;;4.60;99.90;;;;;;5084952;28;20048;-77
2024/01/25 04:12:57;;;;;;;107.50;22.85;;;4.50;99.90;;;;;;5081531;28;20539;-77
2024/01/25 04:15:23;;;;;;;120.63;21.92;;;4.40;99.90;;;;;;5083535;28;20059;-77
2024/01/25 04:17:49;;;;;;;132.55;23.77;;;4.40;99.90;;;;;;5082470;28;20047;-77
2024/01/25 04:20:15;;;;;;;128.50;22.33;;;4.40;99.90;;;;;;5085910;28;20079;-77
2024/01/25 04:22:41;;;;;;;113.60;20.73;;;4.30;99.90;;;;;;5085316;28;20040;-77
2024/01/25 04:25:07;;;;;;;122.65;20.33;;;4.30;99.90;;;;;;5076318;28;20044;-77
2024/01/25 04:27:32;;;;;;;139.25;23.30;;;4.20;99.90;;;;;;5072811;28;20052;-77
2024/01/25 04:29:58;;;;;;;145.32;24.38;;;4.20;99.90;;;;;;5078414;28;20041;-77
2024/01/25 04:32:24;;;;;;;117.55;22.13;;;4.20;99.90;;;;;;5078273;28;20124;-77
2024/01/25 04:34:49;;;;;;;133.50;23.73;;;4.20;99.90;;;;;;5078405;28;20131;-77
2024/01/25 04:37:15;;;;;;;124.85;23.70;;;4.20;99.90;;;;;;5085247;28;20550;-77
2024/01/25 04:39:41;;;;;;;123.03;22.83;;;4.10;99.90;;;;;;5083611;28;20401;-77
2024/01/25 04:42:08;;;;;;;91.47;20.20;;;4.10;99.90;;;;;;5075764;28;20052;-77
2024/01/25 04:44:33;;;;;;;110.50;20.92;;;4.10;99.90;;;;;;5082237;28;20052;-77
2024/01/25 04:47:00;;;;;;;120.03;22.08;;;4.10;99.90;;;;;;5078121;28;20059;-77
2024/01/25 04:49:25;;;;;;;105.45;22.73;;;4.00;99.90;;;;;;5076700;28;20405;-77
2024/01/25 04:51:51;;;;;;;119.03;21.17;;;4.00;99.90;;;;;;5072715;28;20060;-77
2024/01/25 04:54:17;;;;;;;107.10;20.60;;;4.00;99.90;;;;;;5078092;28;20059;-77
2024/01/25 04:56:43;;;;;;;118.35;21.60;;;4.00;99.90;;;;;;5085297;28;20044;-77
2024/01/25 04:59:09;;;;;;;111.18;22.50;;;3.90;99.90;;;;;;5084884;28;20047;-77
2024/01/25 05:01:34;;;;;;;119.40;22.88;;;3.90;99.90;;;;;;5081181;28;20752;-77
2024/01/25 05:04:00;;;;;;;129.25;23.25;;;3.90;99.90;;;;;;5083772;28;20071;-77
2024/01/25 05:06:26;;;;;;;120.28;23.67;;;3.90;99.90;;;;;;5078893;28;20121;-77
2024/01/25 05:08:51;;;;;;;100.45;22.77;;;3.90;99.90;;;;;;5084967;28;20044;-77
2024/01/25 05:11:17;;;;;;;111.55;20.70;;;3.90;99.90;;;;;;5087885;28;20048;-77
2024/01/25 05:13:43;;;;;;;129.05;22.15;;;3.90;99.90;;;;;;5081338;28;20048;-77
2024/01/25 05:16:09;;;;;;;117.43;20.27;;;3.80;99.90;;;;;;5076008;28;20464;-78
2024/01/25 05:18:34;;;;;;;119.13;21.58;;;3.80;99.90;;;;;;5089074;28;20123;-77
2024/01/25 05:21:00;;;;;;;135.48;23.52;;;3.80;99.90;;;;;;5082435;28;20413;-77
2024/01/25 05:23:26;;;;;;;146.30;22.98;;;3.80;99.90;;;;;;5077496;28;20075;-77
2024/01/25 05:25:53;;;;;;;122.90;22.52;;;3.80;99.90;;;;;;5076320;28;20055;-77
2024/01/25 05:28:18;;;;;;;156.32;23.70;;;3.80;99.90;;;;;;5082966;28;20050;-77
2024/01/25 05:30:44;;;;;;;123.38;22.13;;;3.80;99.90;;;;;;5073769;28;20126;-77
2024/01/25 05:33:09;;;;;;;140.23;22.70;;;3.80;99.90;;;;;;5071593;28;20058;-77
2024/01/25 05:35:35;;;;;;;120.40;22.33;;;3.80;99.90;;;;;;5080537;28;20695;-78
2024/01/25 05:38:02;;;;;;;134.90;22.88;;;3.80;99.90;;;;;;5078501;28;20044;-78
2024/01/25 05:40:27;;;;;;;125.38;21.63;;;3.80;99.90;;;;;;5064415;28;20052;-78
2024/01/25 05:42:53;;;;;;;120.95;22.55;;;3.70;99.90;;;;;;5072913;28;20033;-77
2024/01/25 05:45:21;;;;;;;113.05;22.60;;;3.70;99.90;;;;;;5079836;28;20051;-77
2024/01/25 05:47:47;;;;;;;133.05;21.05;;;3.70;99.90;;;;;;5076675;28;20491;-77
2024/01/25 05:50:13;;;;;;;123.32;21.80;;;3.70;99.90;;;;;;5078815;28;20048;-77
2024/01/25 05:52:38;;;;;;;126.60;20.88;;;3.70;99.90;;;;;;5073332;28;20412;-78
2024/01/25 05:55:07;;;;;;;111.05;21.80;;;3.60;99.90;;;;;;5088083;28;20109;-77
2024/01/25 05:57:35;;;;;;;115.97;21.08;;;3.70;99.90;;;;;;5084928;28;20048;-77
2024/01/25 06:00:01;;;;;;;114.85;21.65;;;3.60;99.90;;;;;;5081690;28;20105;-77
2024/01/25 06:02:27;;;;;;;102.65;20.85;;;3.60;99.90;;;;;;5089066;28;20059;-77
2024/01/25 06:04:53;;;;;;;133.82;22.20;;;3.60;99.90;;;;;;5078981;28;20845;-78
2024/01/25 06:07:19;;;;;;;124.50;20.52;;;3.60;99.90;;;;;;5082679;28;20094;-78
2024/01/25 06:09:44;;;;;;;141.70;23.88;;;3.50;99.90;;;;;;5079486;28;20052;-77
2024/01/25 06:12:10;;;;;;;113.47;21.60;;;3.50;99.90;;;;;;5070291;28;20543;-78
2024/01/25 06:14:35;;;;;;;125.43;22.17;;;3.50;99.90;;;;;;5074890;28;20051;-78
2024/01/25 06:17:01;;;;;;;101.07;21.95;;;3.50;99.90;;;;;;5079427;28;20041;-78
2024/01/25 06:19:27;;;;;;;119.25;19.65;;;3.40;99.90;;;;;;5073270;28;20048;-78
2024/01/25 06:21:52;;;;;;;123.72;23.02;;;3.40;99.90;;;;;;5083176;28;20039;-78
2024/01/25 06:24:18;;;;;;;103.38;19.95;;;3.40;99.90;;;;;;5064194;28;20079;-78
2024/01/25 06:26:43;;;;;;;123.68;22.88;;;3.40;99.90;;;;;;5084181;28;20066;-78
2024/01/25 06:29:09;;;;;;;105.25;19.42;;;3.40;99.90;;;;;;5083645;28;20055;-78
2024/01/25 06:31:44;;;;;;;152.07;25.85;;;3.30;99.90;;;;;;5072452;28;20037;-78
2024/01/25 06:34:10;;;;;;;132.20;23.75;;;3.30;99.90;;;;;;5083861;28;20032;-78
2024/01/25 06:36:37;;;;;;;115.53;22.85;;;3.30;99.90;;;;;;5087048;28;20566;-78
2024/01/25 06:39:04;;;;;;;137.45;26.10;;;3.30;99.90;;;;;;5084018;28;20044;-78
2024/01/25 06:41:30;;;;;;;118.95;21.05;;;3.30;99.90;;;;;;5078311;28;20051;-78
2024/01/25 06:43:55;;;;;;;123.65;23.27;;;3.30;99.90;;;;;;5080645;28;20045;-77
2024/01/25 06:46:22;;;;;;;115.63;23.27;;;3.30;99.90;;;;;;5074835;28;20401;-78
2024/01/25 06:48:50;;;;;;;111.22;21.83;;;3.30;99.90;;;;;;5081990;28;20911;-79
2024/01/25 06:51:15;;;;;;;134.27;25.15;;;3.30;99.90;;;;;;5086726;28;20047;-79
2024/01/25 06:53:41;;;;;;;160.10;25.75;;;3.20;99.90;;;;;;5089444;28;20417;-79
2024/01/25 06:56:07;;;;;;;138.80;26.13;;;3.30;99.90;;;;;;5086295;28;20168;-79
2024/01/25 06:58:32;;;;;;;135.02;23.90;;;3.20;99.90;;;;;;5083093;28;20436;-78
2024/01/25 07:01:01;;;;;;;120.20;24.13;;;3.30;99.90;;;;;;5087729;28;20048;-78
2024/01/25 07:03:27;;;;;;;113.68;22.65;;;3.20;99.90;;;;;;5082053;28;20040;-78
2024/01/25 07:05:53;;;;;;;136.05;24.10;;;3.20;99.90;;;;;;5088068;28;20062;-78
2024/01/25 07:08:18;;;;;;;104.82;22.35;;;3.20;99.90;;;;;;5077897;28;20036;-78
2024/01/25 07:10:44;;;;;;;128.05;23.15;;;3.20;99.90;;;;;;5087460;28;20078;-78
2024/01/25 07:13:10;;;;;;;113.13;23.30;;;3.20;99.90;;;;;;5083914;28;20032;-78
2024/01/25 07:15:36;;;;;;;106.20;21.90;;;3.10;99.90;;;;;;5075265;28;20117;-78
2024/01/25 07:18:02;;;;;;;116.40;23.95;;;3.10;99.90;;;;;;5079580;28;20064;-77
2024/01/25 07:20:27;;;;;;;113.90;23.35;;;3.10;99.90;;;;;;5076618;28;20052;-78
2024/01/25 07:22:53;;;;;;;130.45;25.05;;;3.10;99.90;;;;;;5086207;28;20051;-78
2024/01/25 07:25:19;;;;;;;111.45;21.88;;;3.10;99.90;;;;;;5086087;28;20046;-77
2024/01/25 07:27:45;;;;;;;120.05;23.63;;;3.00;99.90;;;;;;5082761;28;20041;-77
2024/01/25 07:30:15;;;;;;;110.20;20.80;;;3.10;99.90;;;;;;5089936;28;20043;-77
2024/01/25 07:32:43;;;;;;;119.05;23.40;;;3.00;99.90;;;;;;5085834;28;20040;-77
2024/01/25 07:35:12;;;;;;;127.93;24.92;;;3.00;99.90;;;;;;5082246;28;20101;-77
2024/01/25 07:37:38;;;;;;;;;;;3.00;99.90;;;;;;5087024;28;20105;-77
2024/01/25 07:40:04;;;;;;;132.23;23.92;;;2.90;99.90;;;;;;5078474;28;19974;-77
2024/01/25 07:42:30;;;;;;;119.10;23.52;;;2.90;99.90;;;;;;5088069;28;20063;-76
2024/01/25 07:44:56;;;;;;;105.78;22.70;;;2.90;99.90;;;;;;5084741;28;20037;-77
2024/01/25 07:47:21;;;;;;;109.97;22.25;;;3.00;99.90;;;;;;5084378;28;20052;-77
2024/01/25 07:49:48;;;;;;;109.28;22.88;;;2.90;99.90;;;;;;5086096;28;20054;-77
2024/01/25 07:52:13;;;;;;;139.00;23.70;;;2.90;99.90;;;;;;5086115;28;20603;-77
2024/01/25 07:54:39;;;;;;;123.50;22.48;;;3.00;99.90;;;;;;5077498;28;20056;-77
2024/01/25 07:57:05;;;;;;;107.93;22.35;;;2.90;99.90;;;;;;5072208;28;20490;-77
2024/01/25 07:59:30;;;;;;;120.22;23.73;;;3.00;99.90;;;;;;5069596;28;20143;-78
2024/01/25 08:01:57;;;;;;;120.70;22.23;;;3.00;99.90;;;;;;5075132;28;20032;-77
2024/01/25 08:04:23;;;;;;;102.20;22.13;;;3.00;99.90;;;;;;5075899;28;20405;-77
2024/01/25 08:06:48;;;;;;;139.95;25.88;;;3.00;99.90;;;;;;5074550;28;20098;-77
2024/01/25 08:09:14;;;;;;;171.32;26.52;;;3.10;99.90;;;;;;5068918;28;20044;-78
2024/01/25 08:11:40;;;;;;;122.22;24.67;;;3.10;99.90;;;;;;5078321;28;20126;-79
2024/01/25 08:14:05;;;;;;;141.68;24.70;;;3.10;99.90;;;;;;5080540;28;20055;-78
2024/01/25 08:16:31;;;;;;;166.65;25.85;;;3.20;99.90;;;;;;5084291;28;20051;-78
2024/01/25 08:18:58;;;;;;;120.85;24.17;;;3.20;99.90;;;;;;5078780;28;20052;-78
2024/01/25 08:21:24;;;;;;;133.52;24.55;;;3.20;99.90;;;;;;5077365;28;20829;-78
2024/01/25 08:23:50;;;;;;;159.70;25.90;;;3.30;99.90;;;;;;5080479;28;20048;-78
2024/01/25 08:26:15;;;;;;;138.98;24.13;;;3.30;99.90;;;;;;5081893;28;20051;-78
2024/01/25 08:28:44;;;;;;;155.50;29.33;;;3.40;99.90;;;;;;5067957;28;20596;-79
2024/01/25 08:31:10;;;;;;;147.20;26.45;;;3.40;99.90;;;;;;5084866;28;20082;-79
2024/01/25 08:33:36;;;;;;;162.50;29.08;;;3.40;99.90;;;;;;5073713;28;20055;-79
2024/01/25 08:36:02;;;;;;;139.02;25.25;;;3.50;99.90;;;;;;5071785;28;20043;-79
2024/01/25 08:38:27;;;;;;;159.05;28.83;;;3.50;99.90;;;;;;5075492;28;20044;-79
2024/01/25 08:40:53;;;;;;;151.48;28.10;;;3.60;99.90;;;;;;5077309;28;20058;-79
2024/01/25 08:43:19;;;;;;;159.13;28.05;;;3.70;99.90;;;;;;5074180;28;20428;-79
2024/01/25 08:45:45;;;;;;;181.00;29.70;;;3.80;99.90;;;;;;5079438;28;20040;-79
2024/01/25 08:48:13;;;;;;;133.50;29.20;;;3.80;99.90;;;;;;5083607;28;20055;-79
2024/01/25 08:50:39;;;;;;;158.07;29.60;;;3.90;99.90;;;;;;5084718;28;20512;-79
2024/01/25 08:53:05;;;;;;;156.07;27.85;;;3.90;99.90;;;;;;5093010;28;20094;-79
2024/01/25 08:55:31;;;;;;;134.43;25.85;;;4.00;99.90;;;;;;5076113;28;20060;-79
2024/01/25 08:57:57;;;;;;;143.65;28.20;;;4.00;99.90;;;;;;5078738;28;20051;-78
2024/01/25 09:00:22;;;;;;;145.48;27.23;;;4.10;99.90;;;;;;5074957;28;20468;-79
2024/01/25 09:02:48;;;;;;;150.80;27.50;;;4.10;99.90;;;;;;5074747;28;20054;-79
2024/01/25 09:05:14;;;;;;;168.93;27.88;;;4.20;99.90;;;;;;5088676;28;20721;-79
2024/01/25 09:07:41;;;;;;;141.50;27.73;;;4.20;99.90;;;;;;5087659;28;20071;-79
2024/01/25 09:10:07;;;;;;;151.45;29.98;;;4.20;99.90;;;;;;5083727;28;20072;-79
2024/01/25 09:12:34;;;;;;;153.50;29.52;;;4.30;99.90;;;;;;5092113;28;20048;-79
2024/01/25 09:15:01;;;;;;;159.95;28.95;;;4.30;99.90;;;;;;5080671;28;20195;-79
2024/01/25 09:17:26;;;;;;;175.48;29.27;;;4.30;99.90;;;;;;5084848;28;20043;-79
2024/01/25 09:19:52;;;;;;;164.88;29.00;;;4.30;99.90;;;;;;5079400;28;20047;-79
2024/01/25 09:22:19;;;;;;;150.88;28.67;;;4.40;99.90;;;;;;5062960;28;20135;-80
2024/01/25 09:24:48;;;;;;;134.18;27.90;;;4.40;99.90;;;;;;5085262;28;20109;-79
2024/01/25 09:27:14;;;;;;;163.32;30.20;;;4.40;99.90;;;;;;5075937;28;20044;-78
2024/01/25 09:29:40;;;;;;;152.13;28.23;;;4.50;99.90;;;;;;5076766;28;20051;-78
2024/01/25 09:32:10;;;;;;;155.35;32.25;;;4.60;99.90;;;;;;5070767;28;20033;-78
2024/01/25 09:34:37;;;;;;;170.43;35.85;;;4.60;99.90;;;;;;5077544;28;20044;-78
2024/01/25 09:37:03;;;;;;;167.75;38.80;;;4.70;99.90;;;;;;5078990;28;20501;-78
2024/01/25 09:39:29;;;;;;;160.80;36.92;;;4.70;99.90;;;;;;5076643;28;20032;-79
2024/01/25 09:41:54;;;;;;;133.05;35.60;;;4.80;99.90;;;;;;5081000;28;20039;-79
2024/01/25 09:44:21;;;;;;;155.43;37.15;;;4.90;99.90;;;;;;5081173;28;20037;-79
2024/01/25 09:46:46;;;;;;;154.45;37.20;;;4.90;99.90;;;;;;5077461;28;20512;-79
2024/01/25 09:49:12;;;;;;;165.63;37.67;;;4.90;99.90;;;;;;5075450;28;20133;-78
2024/01/25 09:51:40;;;;;;;178.27;38.42;;;4.90;99.90;;;;;;5077100;28;20040;-78
2024/01/25 09:54:06;;;;;;;165.48;33.92;;;5.00;99.90;;;;;;5087953;28;20044;-78
2024/01/25 09:56:33;;;;;;;159.90;36.25;;;5.00;99.90;;;;;;5088699;28;20121;-78
2024/01/25 09:59:00;;;;;;;167.20;36.28;;;5.00;99.90;;;;;;5088349;28;20764;-78
2024/01/25 10:01:27;;;;;;;152.68;33.78;;;5.10;99.90;;;;;;5088792;28;20048;-78
2024/01/25 10:03:53;;;;;;;145.88;31.05;;;5.10;99.90;;;;;;5086732;28;20698;-78
2024/01/25 10:06:20;;;;;;;157.27;34.20;;;5.10;99.90;;;;;;5079301;28;20052;-78
2024/01/25 10:08:46;;;;;;;180.88;33.85;;;5.20;99.90;;;;;;5068804;28;20051;-78
2024/01/25 10:11:12;;;;;;;158.30;34.28;;;5.20;99.90;;;;;;5076583;28;20047;-78
2024/01/25 10:13:42;;;;;;;151.77;32.53;;;5.20;99.90;;;;;;5084627;28;20431;-78
2024/01/25 10:16:11;;;;;;;160.80;31.45;;;5.20;99.90;;;;;;5088136;28;20119;-78
2024/01/25 10:18:36;;;;;;;134.57;29.60;;;5.30;99.90;;;;;;5081060;28;20048;-79
2024/01/25 10:21:03;;;;;;;157.93;34.28;;;5.30;99.90;;;;;;5085471;28;20039;-78
2024/01/25 10:23:29;;;;;;;160.82;32.50;;;5.30;99.90;;;;;;5076921;28;20493;-77
2024/01/25 10:25:56;;;;;;;120.65;30.42;;;5.40;99.90;;;;;;5087427;28;20109;-83
2024/01/25 10:28:25;;;;;;;146.00;31.15;;;5.40;99.90;;;;;;5083573;28;20044;-82
2024/01/25 10:30:51;;;;;;;155.65;32.95;;;5.50;99.90;;;;;;5082824;28;20098;-78
2024/01/25 10:33:17;;;;;;;181.50;37.40;;;5.50;99.90;;;;;;5082851;28;20044;-78
2024/01/25 10:35:49;;;;;;;151.35;35.15;;;5.50;99.90;;;;;;5069874;28;20111;-78
2024/01/25 10:38:20;;;;;;;145.85;35.20;;;5.50;99.90;;;;;;5070214;28;20044;-78
2024/01/25 10:40:47;;;;;;;141.90;36.67;;;5.60;99.90;;;;;;5079362;28;20052;-78
2024/01/25 10:43:12;;;;;;;142.65;36.78;;;5.60;99.90;;;;;;5085844;28;20036;-78
2024/01/25 10:45:38;;;;;;;151.90;38.20;;;5.70;99.90;;;;;;5077266;28;20129;-79
2024/01/25 10:48:04;;;;;;;130.98;37.83;;;5.80;99.90;;;;;;5076431;28;20048;-81
2024/01/25 10:50:30;;;;;;;140.15;38.72;;;6.00;99.90;;;;;;5075648;28;20053;-78
2024/01/25 10:52:57;;;;;;;152.13;34.80;;;6.20;99.90;;;;;;5092062;28;20095;-78
2024/01/25 10:55:23;;;;;;;140.00;36.05;;;6.30;99.90;;;;;;5065719;28;20052;-78
2024/01/25 10:57:49;;;;;;;141.07;37.30;;;6.40;99.90;;;;;;5078216;28;20072;-78
2024/01/25 11:00:16;;;;;;;133.20;33.47;;;6.60;99.90;;;;;;5058096;28;20048;-78
2024/01/25 11:02:43;;;;;;;129.07;31.88;;;6.70;99.90;;;;;;5084852;28;20048;-78
2024/01/25 11:05:13;;;;;;;154.05;34.85;;;6.80;99.90;;;;;;5078465;28;20109;-78
2024/01/25 11:07:46;;;;;;;125.03;31.67;;;6.90;99.90;;;;;;5082996;28;20067;-78
2024/01/25 11:10:24;;;;;;;119.63;31.80;;;7.00;99.90;;;;;;5070223;28;20474;-78
2024/01/25 11:12:51;;;;;;;138.70;32.30;;;7.10;99.90;;;;;;5078659;28;20048;-78
2024/01/25 11:15:22;;;;;;;126.78;34.47;;;7.10;99.90;;;;;;5066397;28;20048;-78
2024/01/25 11:17:53;;;;;;;131.80;31.60;;;7.20;99.90;;;;;;5071636;28;20059;-78
2024/01/25 11:20:23;;;;;;;137.02;33.70;;;7.20;99.90;;;;;;5073139;28;20043;-78
2024/01/25 11:22:55;;;;;;;153.30;33.38;;;7.40;99.90;;;;;;5075004;28;20044;-77
2024/01/25 11:25:21;;;;;;;132.15;29.90;;;7.40;99.90;;;;;;5090679;28;20036;-78
2024/01/25 11:27:49;;;;;;;139.43;28.45;;;7.50;99.90;;;;;;5086156;28;20052;-78
2024/01/25 11:30:17;;;;;;;108.13;25.42;;;7.60;99.90;;;;;;5075997;28;20123;-78
2024/01/25 11:32:43;;;;;;;119.28;26.88;;;7.70;99.90;;;;;;5072787;28;20051;-77
2024/01/25 11:35:16;;;;;;;113.40;26.48;;;7.80;99.90;;;;;;5078661;28;20075;-78
2024/01/25 11:37:43;;;;;;;138.48;27.50;;;7.80;99.90;;;;;;5067290;28;20041;-78
2024/01/25 11:40:10;;;;;;;141.57;28.42;;;7.90;99.90;;;;;;5070481;28;20108;-78
2024/01/25 11:42:36;;;;;;;123.32;26.42;;;8.00;99.90;;;;;;5078310;28;20670;-78
2024/01/25 11:45:02;;;;;;;126.25;27.27;;;8.00;99.90;;;;;;5066504;28;20047;-78
2024/01/25 11:47:28;;;;;;;124.05;25.00;;;8.00;99.90;;;;;;5075846;28;20052;-78
2024/01/25 11:49:53;;;;;;;115.50;26.60;;;8.00;99.90;;;;;;5073042;28;20052;-77
2024/01/25 11:52:20;;;;;;;125.72;25.92;;;8.00;99.90;;;;;;5079125;28;20370;-78
2024/01/25 11:54:45;;;;;;;117.57;25.90;;;8.10;99.90;;;;;;5079900;28;20114;-78
2024/01/25 11:57:11;;;;;;;134.90;26.95;;;8.10;99.90;;;;;;5052391;28;20059;-78
2024/01/25 11:59:37;;;;;;;121.57;27.63;;;8.10;99.90;;;;;;5077135;28;20036;-78
2024/01/25 12:02:03;;;;;;;101.80;23.27;;;8.00;99.90;;;;;;5085481;28;20051;-78
2024/01/25 12:04:29;;;;;;;110.85;25.50;;;8.00;99.90;;;;;;5066080;28;20415;-78
2024/01/25 12:06:55;;;;;;;107.38;24.70;;;8.00;99.90;;;;;;5082025;28;20044;-77
2024/01/25 12:09:21;;;;;;;89.35;21.92;;;8.10;99.90;;;;;;5084616;28;20044;-77
2024/01/25 12:11:50;;;;;;;117.15;27.92;;;8.10;99.90;;;;;;5076977;28;20051;-77
2024/01/25 12:14:16;;;;;;;101.78;25.73;;;8.10;99.90;;;;;;5074848;28;20512;-77
2024/01/25 12:16:42;;;;;;;127.03;25.73;;;8.10;99.90;;;;;;5072980;28;20075;-77
2024/01/25 12:19:08;;;;;;;110.10;24.98;;;8.10;99.90;;;;;;5081164;28;20084;-76
2024/01/25 12:21:34;;;;;;;105.68;25.20;;;8.10;99.90;;;;;;5080378;28;20075;-77
2024/01/25 12:24:00;;;;;;;101.80;26.23;;;8.10;99.90;;;;;;5069748;28;20041;-77